Time;durP1;ratioP1;P1;durP2;ratioP2;P2;SDS_P1;SDS_P2;PMS_P1;PMS_P2;Temp;Humidity;BMP_temperature;BMP_pressure;BME280_temperature;BME280_humidity;BME280_pressure;Samples;Min_cycle;Max_cycle;Signal;HPM_P1;HPM_P2
2021/10/22 00:00:48;;;;;;;10.73;2.00;;;;;;;5.14;100.00;99969.63;7391871;19;20439;-53
2021/10/22 00:03:18;;;;;;;8.70;1.77;;;;;;;5.13;100.00;99967.88;7397863;19;20659;-54
2021/10/22 00:05:49;;;;;;;6.57;1.23;;;;;;;5.12;100.00;99972.09;7390302;19;20438;-52
2021/10/22 00:08:18;;;;;;;6.27;1.23;;;;;;;5.18;100.00;99961.28;7399200;19;20467;-53
2021/10/22 00:10:50;;;;;;;12.03;1.50;;;;;;;5.24;100.00;99955.63;7398605;19;20407;-50
2021/10/22 00:13:20;;;;;;;8.93;1.27;;;;;;;5.13;100.00;99962.75;7405050;19;20674;-50
2021/10/22 00:15:50;;;;;;;13.67;2.13;;;;;;;5.18;100.00;99961.28;7400171;19;20415;-53
2021/10/22 00:18:20;;;;;;;9.30;2.07;;;;;;;5.19;100.00;99964.72;7405236;19;20852;-57
2021/10/22 00:20:50;;;;;;;4.70;0.70;;;;;;;5.17;100.00;99962.09;7398211;19;20908;-54
2021/10/22 00:23:20;;;;;;;14.07;1.93;;;;;;;5.17;100.00;99969.75;7404645;19;20670;-51
2021/10/22 00:25:52;;;;;;;8.93;2.57;;;;;;;5.19;100.00;99960.50;7397483;19;20482;-52
2021/10/22 00:28:22;;;;;;;10.30;1.60;;;;;;;5.12;100.00;99954.19;7404934;19;20398;-53
2021/10/22 00:30:51;;;;;;;12.63;1.43;;;;;;;5.16;100.00;99962.00;7397691;19;20423;-49
2021/10/22 00:33:21;;;;;;;4.53;1.50;;;;;;;5.22;100.00;99965.75;7404440;19;20419;-52
2021/10/22 00:35:50;;;;;;;10.30;1.47;;;;;;;5.10;100.00;99960.91;7396397;19;20419;-55
2021/10/22 00:38:19;;;;;;;3.23;1.10;;;;;;;5.13;100.00;99952.53;7404818;19;20399;-52
2021/10/22 00:41:11;;;;;;;6.93;1.00;;;;;;;5.11;100.00;99960.09;7397305;19;20414;-50
2021/10/22 00:43:41;;;;;;;10.60;1.90;;;;;;;5.14;100.00;99965.34;7403833;19;20408;-52
2021/10/22 00:46:10;;;;;;;13.97;0.90;;;;;;;5.08;100.00;99959.94;7396734;19;20415;-56
2021/10/22 00:48:40;;;;;;;4.67;1.30;;;;;;;5.12;100.00;99966.09;7404413;19;20384;-53
2021/10/22 00:51:13;;;;;;;7.07;1.50;;;;;;;5.11;100.00;99975.44;7398242;19;20502;-56
2021/10/22 00:53:43;;;;;;;6.00;1.17;;;;;;;5.01;100.00;99978.31;7403423;19;20677;-52
2021/10/22 00:56:16;;;;;;;12.33;2.50;;;;;;;5.07;100.00;99973.53;7395949;19;20488;-52
2021/10/22 00:58:46;;;;;;;14.17;2.00;;;;;;;5.13;100.00;99967.88;7404711;19;20914;-54
2021/10/22 01:01:15;;;;;;;11.80;2.53;;;;;;;5.10;100.00;99962.56;7396635;19;20441;-52
2021/10/22 01:03:45;;;;;;;6.57;1.10;;;;;;;5.06;100.00;99976.00;7402985;19;20426;-54
2021/10/22 01:06:14;;;;;;;13.73;2.23;;;;;;;5.13;100.00;99972.97;7394505;19;20415;-53
2021/10/22 01:08:45;;;;;;;8.83;1.27;;;;;;;5.09;100.00;99983.84;7403683;19;20395;-55
2021/10/22 01:11:17;;;;;;;7.23;0.90;;;;;;;5.13;100.00;99998.56;7398636;19;20725;-51
2021/10/22 01:13:47;;;;;;;4.17;0.73;;;;;;;5.00;100.00;99992.81;7403027;19;20475;-55
2021/10/22 01:16:16;;;;;;;9.33;1.73;;;;;;;5.03;100.00;100021.88;7395561;19;20490;-57
2021/10/22 01:18:47;;;;;;;12.77;1.60;;;;;;;5.04;100.00;100001.50;7403447;19;20384;-52
2021/10/22 01:21:19;;;;;;;3.50;0.97;;;;;;;4.98;100.00;99984.16;7396168;19;20407;-54
2021/10/22 01:23:48;;;;;;;13.10;2.30;;;;;;;4.98;100.00;99986.72;7402515;19;20483;-55
2021/10/22 01:26:20;;;;;;;6.40;1.10;;;;;;;5.06;100.00;99992.22;7395689;19;20419;-55
2021/10/22 01:28:50;;;;;;;12.63;1.53;;;;;;;5.05;100.00;99992.13;7403081;19;20392;-54
2021/10/22 01:31:21;;;;;;;6.20;1.50;;;;;;;5.07;100.00;99993.13;7387374;19;20483;-55
2021/10/22 01:33:50;;;;;;;7.40;1.20;;;;;;;5.04;100.00;99988.72;7402307;19;20447;-55
2021/10/22 01:36:23;;;;;;;7.03;0.80;;;;;;;5.04;100.00;99998.94;7394549;19;20455;-56
2021/10/22 01:38:52;;;;;;;4.93;2.10;;;;;;;5.08;100.00;99997.44;7402673;19;20853;-52
2021/10/22 01:41:22;;;;;;;4.93;1.30;;;;;;;5.02;100.00;99989.44;7395555;19;20417;-51
2021/10/22 01:43:53;;;;;;;8.43;1.50;;;;;;;4.99;100.00;99987.59;7401984;19;20796;-54
2021/10/22 01:46:23;;;;;;;5.37;1.53;;;;;;;4.99;100.00;99990.16;7395117;19;20423;-55
2021/10/22 01:48:52;;;;;;;2.20;0.80;;;;;;;4.98;100.00;99983.28;7402411;19;20390;-55
2021/10/22 01:51:24;;;;;;;11.03;1.47;;;;;;;5.06;100.00;99976.88;7395043;19;20424;-55
2021/10/22 01:53:54;;;;;;;8.07;1.03;;;;;;;5.05;100.00;99990.47;7401611;19;20423;-51
2021/10/22 01:56:23;;;;;;;4.40;1.43;;;;;;;5.10;100.00;99977.91;7395767;19;20724;-54
2021/10/22 01:58:53;;;;;;;5.50;1.67;;;;;;;5.08;100.00;99975.28;7402120;19;20455;-56
2021/10/22 02:01:22;;;;;;;3.80;1.00;;;;;;;5.06;100.00;99976.00;7394956;19;21141;-56
2021/10/22 02:03:52;;;;;;;4.90;1.90;;;;;;;5.08;100.00;99975.28;7401325;19;20443;-52
2021/10/22 02:06:24;;;;;;;6.07;1.13;;;;;;;5.11;100.00;99966.88;7396127;19;21387;-54
2021/10/22 02:08:54;;;;;;;7.37;1.10;;;;;;;5.15;100.00;99966.25;7401837;19;20384;-54
2021/10/22 02:11:23;;;;;;;2.60;0.90;;;;;;;5.12;100.00;99978.88;7394351;19;20430;-52
2021/10/22 02:13:53;;;;;;;5.33;1.20;;;;;;;5.13;100.00;99986.63;7400826;19;20873;-52
2021/10/22 02:16:23;;;;;;;9.17;1.23;;;;;;;5.18;100.00;99981.75;7392659;19;20439;-53
2021/10/22 02:18:53;;;;;;;5.00;0.93;;;;;;;5.16;100.00;99982.47;7401469;19;20380;-54
2021/10/22 02:21:25;;;;;;;1.20;0.50;;;;;;;5.15;100.00;99984.16;7393967;19;20482;-55
2021/10/22 02:23:55;;;;;;;5.30;1.67;;;;;;;5.22;100.00;99976.00;7400626;19;20424;-54
2021/10/22 02:26:24;;;;;;;5.10;0.60;;;;;;;5.19;100.00;99978.41;7393504;19;20419;-54
2021/10/22 02:28:54;;;;;;;8.47;1.40;;;;;;;5.28;100.00;99983.09;7401023;19;20864;-56
2021/10/22 02:31:23;;;;;;;5.60;1.00;;;;;;;5.28;100.00;99970.28;7391762;19;20490;-55
2021/10/22 02:33:53;;;;;;;1.67;0.50;;;;;;;5.31;100.00;99967.00;7400305;19;20475;-55
2021/10/22 02:36:25;;;;;;;5.87;1.30;;;;;;;5.24;100.00;99961.59;7392432;19;20431;-55
2021/10/22 02:38:55;;;;;;;13.00;1.90;;;;;;;5.33;100.00;99944.97;7400605;19;20470;-55
2021/10/22 02:41:24;;;;;;;4.93;1.37;;;;;;;5.31;100.00;99955.13;7393384;19;20403;-55
2021/10/22 02:43:54;;;;;;;3.87;1.13;;;;;;;5.32;100.00;99950.91;7399995;19;20486;-56
2021/10/22 02:46:23;;;;;;;5.30;1.07;;;;;;;5.26;100.00;99951.44;7392996;19;20498;-55
2021/10/22 02:48:53;;;;;;;5.13;0.90;;;;;;;5.26;100.00;99944.66;7400476;19;20387;-56
2021/10/22 02:51:25;;;;;;;8.27;1.07;;;;;;;5.33;100.00;99939.84;7393555;19;20415;-53
2021/10/22 02:53:55;;;;;;;2.60;1.23;;;;;;;5.36;100.00;99943.44;7399761;19;20410;-55
2021/10/22 02:56:25;;;;;;;2.90;1.00;;;;;;;5.33;100.00;99945.81;7394180;19;20451;-55
2021/10/22 02:58:54;;;;;;;2.00;0.70;;;;;;;5.36;100.00;99942.56;7400185;19;20870;-56
2021/10/22 03:01:24;;;;;;;3.20;0.90;;;;;;;5.34;100.00;99934.78;7392616;19;20688;-51
2021/10/22 03:03:53;;;;;;;6.07;1.40;;;;;;;5.39;100.00;99945.28;7399467;19;20752;-56
2021/10/22 03:06:26;;;;;;;3.77;1.00;;;;;;;5.38;100.00;99935.81;7373810;19;20471;-55
2021/10/22 03:08:56;;;;;;;2.40;0.70;;;;;;;5.34;100.00;99945.03;7399782;19;20468;-55
2021/10/22 03:11:26;;;;;;;6.57;1.20;;;;;;;5.38;100.00;99929.03;7395280;19;20478;-55
2021/10/22 03:13:55;;;;;;;3.00;0.60;;;;;;;5.36;100.00;99919.53;7399251;19;20435;-55
2021/10/22 03:16:25;;;;;;;6.83;0.63;;;;;;;5.35;100.00;99907.53;7395142;19;20427;-55
2021/10/22 03:18:54;;;;;;;7.63;1.43;;;;;;;5.35;100.00;99915.22;7399618;19;20405;-48
2021/10/22 03:21:27;;;;;;;8.90;1.13;;;;;;;5.33;100.00;99911.72;7393587;19;20419;-49
2021/10/22 03:23:57;;;;;;;6.03;0.97;;;;;;;5.33;100.00;99910.00;7398887;19;20477;-50
2021/10/22 03:26:27;;;;;;;10.60;1.23;;;;;;;5.34;100.00;99906.66;7392136;19;20425;-51
2021/10/22 03:28:56;;;;;;;5.63;1.20;;;;;;;5.37;100.00;99900.81;7401980;19;20380;-49
2021/10/22 03:31:27;;;;;;;13.73;1.43;;;;;;;5.35;100.00;99895.66;7392258;19;20429;-50
2021/10/22 03:33:57;;;;;;;2.47;0.90;;;;;;;5.30;100.00;99893.63;7398580;19;20898;-52
2021/10/22 03:36:29;;;;;;;7.30;1.10;;;;;;;5.35;100.00;99885.41;7391359;19;20453;-50
2021/10/22 03:38:59;;;;;;;5.93;1.13;;;;;;;5.34;100.00;99865.72;7399060;19;20388;-49
2021/10/22 03:41:28;;;;;;;10.20;1.80;;;;;;;5.23;100.00;99890.78;7391754;19;20447;-51
2021/10/22 03:43:58;;;;;;;6.30;1.60;;;;;;;5.24;100.00;99889.97;7400838;19;20419;-53
2021/10/22 03:46:27;;;;;;;2.30;0.77;;;;;;;5.22;100.00;99891.59;7398953;19;20398;-52
2021/10/22 03:48:57;;;;;;;17.67;1.87;;;;;;;4.55;100.00;99882.25;7406528;19;20391;-51
2021/10/22 03:51:29;;;;;;;8.73;1.10;;;;;;;4.53;100.00;99892.41;7399218;19;20486;-50
2021/10/22 03:53:58;;;;;;;4.70;0.93;;;;;;;4.53;100.00;99891.50;7405294;19;20416;-51
2021/10/22 03:56:28;;;;;;;4.10;1.13;;;;;;;4.55;100.00;99878.03;7398390;19;20482;-48
2021/10/22 03:58:57;;;;;;;9.13;1.80;;;;;;;5.22;100.00;99870.22;7406161;19;20447;-53
2021/10/22 04:01:27;;;;;;;7.07;1.00;;;;;;;5.23;100.00;99875.44;7398825;19;20424;-53
2021/10/22 04:03:57;;;;;;;9.47;1.40;;;;;;;5.20;100.00;99870.19;7404969;19;20427;-53
2021/10/22 04:06:29;;;;;;;11.73;1.77;;;;;;;5.27;100.00;99874.78;7399927;19;20462;-53
2021/10/22 04:08:58;;;;;;;8.20;1.50;;;;;;;5.20;100.00;99879.53;7405918;19;20372;-48
2021/10/22 04:11:28;;;;;;;8.17;1.97;;;;;;;5.22;100.00;99860.00;7398507;19;20437;-52
2021/10/22 04:13:57;;;;;;;2.50;0.90;;;;;;;5.24;100.00;99859.28;7404673;19;20483;-52
2021/10/22 04:16:30;;;;;;;4.17;1.23;;;;;;;5.25;100.00;99849.94;7398051;19;20417;-50
2021/10/22 04:18:59;;;;;;;15.00;1.47;;;;;;;5.25;100.00;99849.94;7402737;19;20390;-53
2021/10/22 04:21:31;;;;;;;4.73;1.53;;;;;;;5.32;100.00;99851.13;7398205;19;20486;-49
2021/10/22 04:24:01;;;;;;;13.60;1.90;;;;;;;5.30;100.00;99852.72;7404428;19;20478;-52
2021/10/22 04:26:30;;;;;;;8.17;1.13;;;;;;;5.24;100.00;99843.94;7397697;19;20422;-51
2021/10/22 04:29:00;;;;;;;3.60;1.10;;;;;;;5.28;100.00;99839.84;7405235;19;20398;-49
2021/10/22 04:31:29;;;;;;;3.47;1.40;;;;;;;5.30;100.00;99842.47;7398395;19;20437;-50
2021/10/22 04:33:59;;;;;;;9.10;0.97;;;;;;;5.33;100.00;99845.19;7403959;19;20415;-49
2021/10/22 04:36:28;;;;;;;9.13;1.30;;;;;;;5.38;100.00;99836.94;7395900;19;20428;-51
2021/10/22 04:41:42;;;;;;;7.17;1.03;;;;;;;5.39;100.00;99827.59;7395246;19;20688;-51
2021/10/22 04:44:11;;;;;;;2.53;0.80;;;;;;;5.42;100.00;99812.38;7401227;19;20423;-55
2021/10/22 04:46:41;;;;;;;6.60;1.33;;;;;;;5.51;100.00;99827.28;7395889;19;20449;-55
2021/10/22 04:49:11;;;;;;;12.80;2.20;;;;;;;5.50;100.00;99836.63;7402050;19;20392;-53
2021/10/22 04:51:41;;;;;;;7.40;1.60;;;;;;;5.54;100.00;99825.75;7394776;19;20700;-53
2021/10/22 04:54:13;;;;;;;5.23;1.13;;;;;;;5.59;100.00;99831.06;7400025;19;20475;-52
2021/10/22 04:56:42;;;;;;;12.70;1.97;;;;;;;5.60;100.00;99826.84;7394243;19;20423;-49
2021/10/22 04:59:12;;;;;;;12.27;1.90;;;;;;;5.63;100.00;99816.75;7399597;19;20459;-50
2021/10/22 05:01:41;;;;;;;5.80;1.60;;;;;;;5.61;100.00;99809.00;7394141;19;20426;-50
2021/10/22 05:04:11;;;;;;;5.83;0.83;;;;;;;5.54;100.00;99818.06;7400568;19;20439;-51
2021/10/22 05:06:40;;;;;;;7.23;1.40;;;;;;;5.57;100.00;99803.66;7394104;19;20684;-50
2021/10/22 05:09:12;;;;;;;10.13;1.80;;;;;;;5.57;100.00;99806.22;7401360;19;20410;-52
2021/10/22 05:11:42;;;;;;;7.10;1.90;;;;;;;5.56;100.00;99802.78;7394472;19;20436;-54
2021/10/22 05:14:11;;;;;;;9.50;2.00;;;;;;;5.49;100.00;99799.06;7400229;19;20721;-53
2021/10/22 05:16:40;;;;;;;2.20;0.97;;;;;;;5.52;100.00;99781.31;7393498;19;20479;-51
2021/10/22 05:19:10;;;;;;;9.90;1.50;;;;;;;5.51;100.00;99796.56;7399007;19;20376;-50
2021/10/22 05:21:40;;;;;;;9.83;2.17;;;;;;;5.51;100.00;99782.13;7394076;19;20415;-52
2021/10/22 05:24:09;;;;;;;13.30;2.37;;;;;;;5.62;100.00;99786.84;7400035;19;20440;-51
2021/10/22 05:26:41;;;;;;;9.23;1.50;;;;;;;5.58;100.00;99782.41;7393448;19;20407;-54
2021/10/22 05:29:10;;;;;;;10.50;1.83;;;;;;;5.57;100.00;99776.41;7402992;19;20392;-53
2021/10/22 05:31:40;;;;;;;16.30;1.97;;;;;;;5.56;100.00;99763.53;7393370;19;20690;-51
2021/10/22 05:34:10;;;;;;;10.70;1.80;;;;;;;4.80;100.00;99768.50;7399281;19;20421;-54
2021/10/22 05:36:39;;;;;;;7.33;1.30;;;;;;;4.80;100.00;99754.03;7253891;19;2744102;-53
2021/10/22 05:39:09;;;;;;;14.43;1.70;;;;;;;4.77;100.00;99753.88;7400958;19;20179;-55
2021/10/22 05:41:41;;;;;;;8.67;1.70;;;;;;;4.78;100.00;99747.09;7397162;19;20515;-54
2021/10/22 05:44:10;;;;;;;3.40;0.90;;;;;;;4.81;100.00;99749.78;7401622;19;20754;-49
2021/10/22 05:46:40;;;;;;;6.73;1.80;;;;;;;4.78;100.00;99750.53;7394661;19;20422;-53
2021/10/22 05:49:09;;;;;;;4.27;1.10;;;;;;;4.77;100.00;99733.44;7402153;19;20455;-53
2021/10/22 05:51:39;;;;;;;7.10;1.50;;;;;;;4.78;100.00;99759.88;7394941;19;20419;-52
2021/10/22 05:54:08;;;;;;;12.87;1.40;;;;;;;4.81;100.00;99744.69;7400868;19;20450;-51
2021/10/22 05:56:41;;;;;;;6.97;2.30;;;;;;;4.82;100.00;99737.09;7395848;19;20455;-54
2021/10/22 05:59:10;;;;;;;7.63;1.37;;;;;;;4.79;100.00;99728.41;7402780;19;20388;-50
2021/10/22 06:01:40;;;;;;;6.07;0.90;;;;;;;4.78;100.00;99737.75;7363503;19;20391;-50
2021/10/22 06:04:10;;;;;;;7.47;1.43;;;;;;;4.79;100.00;99736.06;7403273;19;20432;-49
2021/10/22 06:06:39;;;;;;;6.30;1.30;;;;;;;4.84;100.00;99750.84;7392226;19;20419;-53
2021/10/22 06:09:09;;;;;;;6.93;1.40;;;;;;;4.85;100.00;99737.25;7400811;19;20404;-51
2021/10/22 06:11:41;;;;;;;6.13;1.80;;;;;;;4.86;100.00;99750.91;7397566;19;20451;-54
2021/10/22 06:14:11;;;;;;;5.27;1.40;;;;;;;4.95;100.00;99730.03;7400620;19;20419;-56
2021/10/22 06:16:40;;;;;;;11.37;1.70;;;;;;;4.95;100.00;99737.69;7392514;19;20424;-54
2021/10/22 06:19:15;;;;;;;10.93;1.90;;;;;;;5.05;100.00;99749.22;7400056;19;20396;-56
2021/10/22 06:21:55;;;;;;;6.00;1.60;;;;;;;5.12;100.00;99728.25;7393711;19;20418;-56
2021/10/22 06:24:24;;;;;;;3.77;1.67;;;;;;;5.14;100.00;99719.84;7400153;19;20487;-55
2021/10/22 06:26:56;;;;;;;4.10;1.37;;;;;;;5.17;100.00;99720.81;7393172;19;20494;-56
2021/10/22 06:29:26;;;;;;;9.27;1.90;;;;;;;5.18;100.00;99735.38;7403942;19;20467;-54
2021/10/22 06:31:55;;;;;;;7.90;2.27;;;;;;;5.18;100.00;99720.88;7393565;19;20423;-54
2021/10/22 06:34:27;;;;;;;10.30;1.53;;;;;;;5.19;100.00;99711.53;7400004;19;20426;-56
2021/10/22 06:36:57;;;;;;;3.07;1.13;;;;;;;5.26;100.00;99717.00;7393745;19;20503;-55
2021/10/22 06:39:26;;;;;;;13.03;2.10;;;;;;;5.26;100.00;99714.47;7399117;19;20391;-56
2021/10/22 06:41:58;;;;;;;7.17;2.40;;;;;;;5.33;100.00;99715.59;7393388;19;20718;-53
2021/10/22 06:44:28;;;;;;;8.00;1.93;;;;;;;5.32;100.00;99705.31;7399622;19;20418;-56
2021/10/22 06:47:00;;;;;;;6.83;1.40;;;;;;;5.35;100.00;99713.13;7393687;19;20443;-51
2021/10/22 06:49:30;;;;;;;4.30;1.10;;;;;;;5.35;100.00;99710.56;7401267;19;20400;-54
2021/10/22 06:51:59;;;;;;;7.93;1.40;;;;;;;5.40;100.00;99711.66;7392909;19;20423;-53
2021/10/22 06:54:29;;;;;;;12.63;1.40;;;;;;;5.45;100.00;99696.50;7401323;19;20491;-52
2021/10/22 06:57:01;;;;;;;10.73;1.60;;;;;;;5.47;100.00;99713.69;7392678;19;20770;-48
2021/10/22 06:59:30;;;;;;;5.47;1.30;;;;;;;5.51;100.00;99704.47;7398856;19;20854;-48
2021/10/22 07:02:00;;;;;;;11.87;2.13;;;;;;;5.53;100.00;99728.44;7392032;19;20506;-51
2021/10/22 07:04:30;;;;;;;6.90;1.53;;;;;;;5.54;100.00;99741.31;7398953;19;20698;-49
2021/10/22 07:09:41;;;;;;;11.40;4.13;;;;;;;5.65;100.00;99717.88;7399246;19;20465;-48
2021/10/22 07:12:14;;;;;;;22.90;7.27;;;;;;;5.64;100.00;99727.25;7392197;19;20419;-51
2021/10/22 07:14:53;;;;;;;19.83;5.27;;;;;;;5.65;100.00;99707.66;7398260;19;20487;-50
2021/10/22 07:17:23;;;;;;;13.90;4.40;;;;;;;5.60;100.00;99727.03;7395984;19;20747;-50
2021/10/22 07:19:52;;;;;;;17.47;4.30;;;;;;;5.66;100.00;99694.03;7397346;19;20460;-47
2021/10/22 07:22:30;;;;;;;44.83;10.07;;;;;;;5.70;100.00;99718.97;7391657;19;20799;-49
2021/10/22 07:24:59;;;;;;;13.00;2.47;;;;;;;5.66;100.00;99709.41;7394151;19;20416;-51
2021/10/22 07:27:31;;;;;;;15.73;3.20;;;;;;;5.65;100.00;99717.88;7398040;19;20403;-51
2021/10/22 07:30:01;;;;;;;18.30;5.07;;;;;;;5.62;100.00;99712.63;7401683;19;20380;-47
2021/10/22 07:32:30;;;;;;;9.50;2.83;;;;;;;5.52;100.00;99694.31;7398941;19;20654;-47
2021/10/22 07:35:00;;;;;;;7.27;1.80;;;;;;;5.44;100.00;99708.41;7394403;19;20437;-49
2021/10/22 07:37:29;;;;;;;5.30;1.10;;;;;;;5.40;100.00;99702.28;7398375;19;20402;-50
2021/10/22 07:39:59;;;;;;;16.00;2.57;;;;;;;5.45;100.00;99702.53;7366303;19;20443;-51
2021/10/22 07:42:31;;;;;;;7.73;1.13;;;;;;;5.46;100.00;99691.47;7400416;19;20451;-51
2021/10/22 07:45:01;;;;;;;13.73;2.90;;;;;;;5.50;100.00;99708.69;7388796;19;20423;-52
2021/10/22 07:47:32;;;;;;;5.93;1.90;;;;;;;5.58;100.00;99691.13;7397675;19;20865;-50
2021/10/22 07:50:02;;;;;;;10.57;1.60;;;;;;;5.67;100.00;99690.69;7390842;19;20437;-52
2021/10/22 07:52:32;;;;;;;13.57;1.97;;;;;;;5.68;100.00;99693.31;7399507;19;20405;-53
2021/10/22 07:55:01;;;;;;;12.33;1.80;;;;;;;5.78;100.00;99691.13;7390397;19;20430;-52
2021/10/22 07:57:34;;;;;;;1.50;0.97;;;;;;;5.79;100.00;99686.09;7397451;19;20406;-52
2021/10/22 08:00:05;;;;;;;12.10;1.43;;;;;;;5.80;100.00;99684.44;7388329;19;20430;-54
2021/10/22 08:02:34;;;;;;;14.53;1.67;;;;;;;5.84;100.00;99693.97;7401148;19;20395;-48
2021/10/22 08:05:05;;;;;;;6.33;2.57;;;;;;;5.87;100.00;99672.75;7389501;19;20456;-51
2021/10/22 08:07:37;;;;;;;10.97;1.33;;;;;;;5.92;100.00;99686.63;7399016;19;20391;-53
2021/10/22 08:10:08;;;;;;;10.07;1.33;;;;;;;5.88;100.00;99690.75;7393361;19;20419;-54
2021/10/22 08:12:40;;;;;;;3.93;1.03;;;;;;;5.91;100.00;99690.00;7397681;19;20447;-53
2021/10/22 08:15:11;;;;;;;11.10;1.70;;;;;;;5.96;100.00;99688.53;7391400;19;20443;-52
2021/10/22 08:17:40;;;;;;;5.43;2.33;;;;;;;5.96;100.00;99678.28;7396962;19;20388;-48
2021/10/22 08:20:16;;;;;;;10.17;1.17;;;;;;;6.08;100.00;99658.34;7388051;19;20457;-47
2021/10/22 08:22:46;;;;;;;6.57;1.30;;;;;;;6.14;100.00;99667.09;7397398;19;20668;-49
2021/10/22 08:25:17;;;;;;;3.83;1.37;;;;;;;6.20;100.00;99667.34;7393166;19;20479;-50
2021/10/22 08:27:52;;;;;;;5.90;2.03;;;;;;;6.19;100.00;99693.78;7396667;19;20444;-51
2021/10/22 08:30:25;;;;;;;4.03;1.10;;;;;;;6.25;100.00;99676.09;7394966;19;20422;-53
2021/10/22 08:32:56;;;;;;;9.50;1.80;;;;;;;6.20;100.00;99669.91;7404653;19;20455;-48
2021/10/22 08:35:30;;;;;;;11.50;1.90;;;;;;;6.31;100.00;99671.22;7399411;19;20474;-51
2021/10/22 08:38:01;;;;;;;4.80;1.30;;;;;;;6.27;100.00;99669.38;7403946;19;20448;-52
2021/10/22 08:40:31;;;;;;;6.53;1.87;;;;;;;6.24;100.00;99668.38;7398166;19;20437;-50
2021/10/22 08:43:03;;;;;;;2.17;0.97;;;;;;;6.14;100.00;99682.44;7403802;19;20754;-48
2021/10/22 08:45:34;;;;;;;8.30;1.40;;;;;;;6.08;100.00;99677.97;7385078;19;20407;-48
2021/10/22 08:48:04;;;;;;;11.10;4.80;;;;;;;6.06;100.00;99677.88;7400319;19;20402;-51
2021/10/22 08:50:34;;;;;;;17.43;2.00;;;;;;;5.88;100.00;99725.69;7392780;19;20710;-50
2021/10/22 08:53:03;;;;;;;7.47;2.00;;;;;;;5.80;100.00;99718.56;7401030;19;20402;-52
2021/10/22 08:55:33;;;;;;;11.43;2.00;;;;;;;5.69;100.00;99683.94;7392454;19;20411;-54
2021/10/22 08:58:05;;;;;;;8.23;2.00;;;;;;;5.63;100.00;99724.59;7401741;19;20387;-53
2021/10/22 09:00:35;;;;;;;14.13;2.60;;;;;;;5.59;100.00;99733.81;7388725;19;20479;-56
2021/10/22 09:03:12;;;;;;;11.10;3.30;;;;;;;5.60;100.00;99719.38;7401348;19;20380;-54
2021/10/22 09:06:01;;;;;;;8.93;2.40;;;;;;;5.56;100.00;99718.34;7399386;19;20417;-54
2021/10/22 09:08:32;;;;;;;7.90;2.10;;;;;;;5.59;100.00;99727.84;7398029;19;20391;-53
2021/10/22 09:11:02;;;;;;;6.50;1.77;;;;;;;5.61;100.00;99737.34;7402167;19;20473;-54
2021/10/22 09:13:35;;;;;;;8.80;2.90;;;;;;;5.71;100.00;99748.88;7394928;19;20681;-52
2021/10/22 09:16:20;;;;;;;24.37;2.10;;;;;;;5.74;100.00;99743.88;7406287;19;20467;-51
2021/10/22 09:18:50;;;;;;;6.40;1.73;;;;;;;5.72;100.00;99773.66;7401459;19;20418;-52
2021/10/22 09:21:27;;;;;;;7.57;1.70;;;;;;;5.68;100.00;99756.41;7402050;19;20416;-57
2021/10/22 09:24:15;;;;;;;8.70;2.07;;;;;;;5.64;100.00;99767.34;7401149;19;20434;-54
2021/10/22 09:26:51;;;;;;;13.10;2.73;;;;;;;5.62;100.00;99759.56;7406937;19;20404;-57
2021/10/22 09:29:26;;;;;;;3.47;1.20;;;;;;;5.60;100.00;99724.47;7398124;19;20422;-56
2021/10/22 09:31:58;;;;;;;6.07;1.30;;;;;;;5.58;100.00;99713.31;7405809;19;20937;-54
2021/10/22 09:34:32;;;;;;;9.80;1.60;;;;;;;5.64;100.00;99727.25;7395356;19;20418;-53
2021/10/22 09:37:03;;;;;;;6.83;1.60;;;;;;;5.70;100.00;99716.41;7402088;19;20390;-51
2021/10/22 09:39:36;;;;;;;3.03;0.93;;;;;;;5.72;100.00;99725.03;7400610;19;20432;-54
2021/10/22 09:42:12;;;;;;;4.80;0.80;;;;;;;5.77;100.00;99731.25;7399868;19;20403;-56
2021/10/22 09:44:45;;;;;;;5.73;0.87;;;;;;;5.77;100.00;99723.56;7368905;19;20439;-53
2021/10/22 09:47:16;;;;;;;8.30;1.40;;;;;;;5.76;100.00;99739.72;7404953;19;20463;-56
2021/10/22 09:49:48;;;;;;;3.47;1.40;;;;;;;5.72;100.00;99740.38;7369682;19;20407;-58
2021/10/22 09:52:21;;;;;;;2.03;1.10;;;;;;;5.70;100.00;99733.44;7402287;19;20651;-56
2021/10/22 09:55:06;;;;;;;4.10;0.97;;;;;;;5.70;100.00;99744.56;7364537;19;20459;-58
2021/10/22 09:57:36;;;;;;;11.53;1.40;;;;;;;5.72;100.00;99763.44;7400941;19;20486;-58
2021/10/22 10:00:11;;;;;;;6.00;1.40;;;;;;;5.73;100.00;99760.06;7391168;19;20440;-57
2021/10/22 10:02:42;;;;;;;10.83;1.00;;;;;;;5.71;100.00;99784.72;7401049;19;20412;-57
2021/10/22 10:05:13;;;;;;;8.83;1.87;;;;;;;5.71;100.00;99783.81;7399364;19;20443;-55
2021/10/22 10:07:45;;;;;;;29.53;5.37;;;;;;;5.67;100.00;99803.28;7401010;19;20455;-57
2021/10/22 10:10:15;;;;;;;4.90;1.47;;;;;;;5.68;100.00;99779.44;7398196;19;20426;-58
2021/10/22 10:12:46;;;;;;;22.07;3.90;;;;;;;5.71;100.00;99792.41;7401812;19;20399;-57
2021/10/22 10:15:18;;;;;;;4.53;1.57;;;;;;;5.72;100.00;99777.91;7397516;19;20725;-58
2021/10/22 10:17:50;;;;;;;11.53;3.00;;;;;;;5.72;100.00;99771.09;7400410;19;20398;-57
2021/10/22 10:20:29;;;;;;;7.40;1.07;;;;;;;5.76;100.00;99767.88;7393197;19;20446;-54
2021/10/22 10:22:59;;;;;;;10.10;1.60;;;;;;;5.81;100.00;99776.63;7404071;19;20410;-52
2021/10/22 10:25:28;;;;;;;6.50;1.53;;;;;;;5.84;100.00;99775.03;7392567;19;20510;-53
2021/10/22 10:27:59;;;;;;;3.90;1.80;;;;;;;5.86;100.00;99764.06;7400975;19;20392;-58
2021/10/22 10:30:34;;;;;;;9.63;2.87;;;;;;;5.91;100.00;99767.69;7395925;19;20439;-54
2021/10/22 10:33:05;;;;;;;2.73;1.43;;;;;;;5.93;100.00;99771.19;7403900;19;20391;-55
2021/10/22 10:35:39;;;;;;;9.33;2.13;;;;;;;5.94;100.00;99798.56;7399711;19;20446;-59
2021/10/22 10:38:13;;;;;;;5.80;1.63;;;;;;;5.93;100.00;99806.16;7404439;19;20404;-57
2021/10/22 10:40:42;;;;;;;10.87;3.50;;;;;;;5.98;100.00;99803.81;7403427;19;20442;-54
2021/10/22 10:43:22;;;;;;;15.73;2.27;;;;;;;5.92;100.00;99789.03;7404329;19;20388;-51
2021/10/22 10:45:54;;;;;;;11.80;2.53;;;;;;;5.90;100.00;99803.47;7402797;19;20431;-54
2021/10/22 10:48:24;;;;;;;2.60;1.10;;;;;;;5.87;100.00;99786.28;7400248;19;20459;-53
2021/10/22 10:50:56;;;;;;;4.70;1.10;;;;;;;5.86;100.00;99771.75;7403919;19;20396;-56
2021/10/22 10:53:33;;;;;;;10.47;2.80;;;;;;;5.91;100.00;99802.66;7377592;19;20442;-53
2021/10/22 10:56:05;;;;;;;8.30;3.20;;;;;;;5.94;100.00;99789.97;7401046;19;20460;-51
2021/10/22 10:58:44;;;;;;;4.30;1.20;;;;;;;5.99;100.00;99795.34;7399405;19;20431;-53
2021/10/22 11:01:27;;;;;;;7.40;2.10;;;;;;;5.97;100.00;99756.84;7403016;19;20837;-55
2021/10/22 11:03:58;;;;;;;7.83;1.47;;;;;;;5.97;100.00;99746.59;7399217;19;20451;-54
2021/10/22 11:06:40;;;;;;;1.67;0.83;;;;;;;5.94;100.00;99778.06;7403288;19;20372;-57
2021/10/22 11:09:09;;;;;;;7.60;1.53;;;;;;;5.92;100.00;99786.50;7395794;19;20482;-52
2021/10/22 11:11:41;;;;;;;7.50;1.30;;;;;;;5.95;100.00;99800.31;7399794;19;20463;-55
2021/10/22 11:14:15;;;;;;;9.00;1.20;;;;;;;5.97;100.00;99791.81;7392935;19;20418;-52
2021/10/22 11:16:51;;;;;;;6.43;1.00;;;;;;;5.97;100.00;99782.47;7398970;19;20396;-58
2021/10/22 11:19:25;;;;;;;7.27;1.50;;;;;;;5.97;100.00;99787.56;7395731;19;20783;-56
2021/10/22 11:21:55;;;;;;;3.00;1.13;;;;;;;6.01;100.00;99786.88;7398556;19;20849;-54
2021/10/22 11:24:26;;;;;;;3.00;1.40;;;;;;;5.99;100.00;99775.72;7395365;19;20456;-54
2021/10/22 11:27:00;;;;;;;3.60;1.07;;;;;;;6.01;100.00;99774.09;7402572;19;20552;-57
2021/10/22 11:29:31;;;;;;;7.23;1.47;;;;;;;6.01;100.00;99758.72;7395489;19;20423;-56
2021/10/22 11:32:04;;;;;;;7.50;2.20;;;;;;;6.14;100.00;99759.28;7398738;19;20886;-55
2021/10/22 11:34:37;;;;;;;3.47;1.33;;;;;;;6.18;100.00;99762.06;7395291;19;20953;-57
2021/10/22 11:37:08;;;;;;;4.37;1.10;;;;;;;6.22;100.00;99773.31;7401102;19;20418;-55
2021/10/22 11:39:39;;;;;;;5.53;1.97;;;;;;;6.25;100.00;99809.31;7371403;19;20750;-55
2021/10/22 11:42:22;;;;;;;5.83;1.33;;;;;;;6.03;100.00;99771.63;7397057;19;20448;-53
2021/10/22 11:44:56;;;;;;;15.10;1.93;;;;;;;6.03;100.00;99831.41;7394897;19;20474;-55
2021/10/22 11:47:33;;;;;;;9.20;1.73;;;;;;;5.89;100.00;99829.88;7398255;19;20383;-54
2021/10/22 11:50:23;;;;;;;3.33;1.07;;;;;;;5.43;100.00;99801.31;7394572;19;20483;-55
2021/10/22 11:53:04;;;;;;;16.63;4.97;;;;;;;5.58;100.00;99673.22;7398773;19;20439;-51
2021/10/22 11:55:34;;;;;;;2.90;1.10;;;;;;;5.35;100.00;99660.28;7394637;19;20427;-56